x

Bodega Bay - 48nm Nnw Of San Francisco, Ca (46013) Wave Buoy

10:50am - Wed 20th Aug 2014 All times are PDT. -7 hours from GMT.

  • Sig Wave height 4.3ft
  • Peak Period 8s
  • Average Period 7s
  • Wind
    4mph, 7mph gusts
  • Sea Temp 58°f
  • Air Temp 57°f
  • Sea Pressure 1014mb
  • Bodega Bay - 48nm Nnw Of San Francisco, Ca
  • Bodega Bay - 48nm Nnw Of San Francisco, Ca

More Historic Weather Station data

Upgrade to MSW Pro to gain access to the past 30 days of data for over 8000 Wavebouys and Weather Stations around the globe.

Join Pro

Comparision Forecast

View Surf forecast
   
Wed 08/20 10:50am 4.5ft 8s 7s 4 7 mph 1014mb 58f 57f
9:50am 4.5ft 8s 6s 4 7 mph 1013.6mb 58f 56f
8:50am 4ft 8s 6s 4
mph
1013.2mb 58f 56f
7:50am 4.5ft 8s 6s 4 7 mph 1012.8mb 58f 56f
6:50am 4.5ft 8s 7s 4 7 mph 1012.2mb 58f 56f
5:50am 4.5ft 8s 7s 2 4 mph 1011.8mb 58f 56f
4:50am 4.5ft 8s 7s 4
mph
1011.6mb 58f 56f
3:50am 4.5ft 9s 7s 4
mph
1011.6mb 58f 56f
2:50am 4ft 8s 7s 4
mph
1011.6mb 58f 56f
1:50am 4ft 8s 7s 4 7 mph 1011.6mb 58f 56f
12:50am 4.5ft 9s 7s 4
mph
1011.9mb 58f 56f
Tue 08/19 11:50pm 4ft 9s 7s 4
mph
1011.7mb 58f 57f
10:50pm 4ft 8s 7s 7
mph
1011.7mb 58f 57f
9:50pm 4.5ft 8s 7s 4 7 mph 1011.6mb 58f 57f
8:50pm 4ft 8s 7s 4
mph
1011mb 58f 58f
7:50pm 4.5ft 8s 7s 4 7 mph 1010.5mb 58f 58f
6:50pm 4.5ft 8s 7s 2 4 mph 1010.2mb 58f 58f
5:50pm 4.5ft 8s 7s 4 9 mph 1010.7mb 58f 59f
4:50pm 4.5ft 8s 7s 4 7 mph 1010.4mb 58f 58f
3:50pm 4.5ft 8s 7s 2 4 mph 1010.7mb 58f 59f
2:50pm 4ft 8s 7s 4 7 mph 1011.1mb 58f 59f
1:50pm 4ft 8s 7s 4 7 mph 1011.4mb 58f 58f
12:50pm 3.5ft 8s 6s 4
mph
1011.8mb 58f 59f
11:50am 3.5ft 15s 6s 4 7 mph 1011.6mb 58f 59f
10:50am 4ft 9s 6s 4 7 mph 1011.5mb 58f 58f
9:50am 4ft 9s  -  2 4 mph 1011.3mb 57f 57f
8:50am 4.5ft 7s  -   -  2 mph 1011.1mb 57f 56f
7:50am 4.5ft 8s  -  4 7 mph 1010.9mb 57f 56f
6:50am 4.5ft 11s  -  2
mph
1010.6mb 57f 56f
5:50am 4.5ft 7s  -  2
mph
1010.2mb 57f 56f
4:50am 5ft 7s  -   -  2 mph 1010.3mb 57f 56f
3:50am 5ft 8s  -  7 9 mph 1010.3mb 57f 56f
2:50am 5ft 8s  -  9 11 mph 1010.1mb 57f 57f
1:50am 5ft 8s  -  11 13 mph 1010.2mb 57f 57f
12:50am 6ft 6s  -  16 20 mph 1010.1mb 57f 57f
Mon 08/18 11:50pm 6.5ft 7s  -  20 22 mph 1010.3mb 57f 57f
10:50pm 7ft 6s  -  20 25 mph 1009.9mb 57f 57f
9:50pm 7ft 6s  -  25 29 mph 1009.9mb 57f 57f
8:50pm 7ft 7s  -  22 27 mph 1009.7mb 57f 57f
7:50pm 7ft 6s  -  25 27 mph 1009.4mb 57f 57f
6:50pm 7ft 7s  -  25 31 mph 1009.3mb 57f 57f
5:50pm 7ft 9s  -  25 31 mph 1009.9mb 57f 57f
4:50pm 6.5ft 9s  -  25 29 mph 1010.2mb 57f 57f
3:50pm 6ft 8s  -  18 22 mph 1010.9mb 57f 57f
2:50pm 6ft 8s  -  18 22 mph 1011.4mb 57f 57f
1:50pm 6.5ft 8s  -  16 20 mph 1011.9mb 57f 57f
12:50pm 6.5ft 8s  -  16 20 mph 1012.4mb 57f 57f
11:50am 6ft 8s  -  13 16 mph 1012.9mb 57f 56f
10:50am 5ft 8s  -  13 16 mph 1012.8mb 57f 56f
9:50am 6ft 11s  -  13 18 mph 1012.4mb 57f 56f
8:50am 5.5ft 8s  -  13 18 mph 1012.3mb 57f 55f
7:50am 5.5ft 11s  -  13 18 mph 1012.1mb 58f 56f
6:50am 5.5ft 11s  -  11 16 mph 1012.1mb 58f 56f
5:50am 6ft 11s  -  13 18 mph 1011.8mb 57f 55f
4:50am 5ft 11s  -  11 16 mph 1012.2mb 57f 55f
3:50am 5ft 11s  -  13 16 mph 1012.4mb 57f 56f
2:50am 4.5ft 13s  -  13 18 mph 1012.5mb 57f 56f
1:50am 4.5ft 11s  -  16 18 mph 1012.8mb 57f 56f
12:50am 4.5ft 13s  -  16 20 mph 1013.2mb 57f 56f
Sun 08/17 11:50pm 4.5ft 11s  -  16 18 mph 1013.5mb 57f 55f
10:50pm 4.5ft 11s  -  16 18 mph 1013.6mb 57f 55f
9:50pm 5ft 12s  -  16 20 mph 1013.9mb 57f 56f
8:50pm 4.5ft 12s  -  16 20 mph 1013.7mb 58f 57f
7:50pm 4.5ft 13s  -  16 20 mph 1014mb 57f 57f
6:50pm 4.5ft 12s  -  16 20 mph 1014.3mb 57f 57f
5:50pm 4.5ft 14s  -  18 22 mph 1014.4mb 58f 57f
4:50pm 4ft 11s  -  16 20 mph 1015.1mb 58f 58f
3:50pm 4.5ft 12s  -  13 18 mph 1015.7mb 58f 58f
2:50pm 4ft 12s  -  11 16 mph 1016.4mb 58f 57f
1:50pm 4.5ft 13s  -  11 13 mph 1016.9mb 58f 57f
12:50pm 4.5ft 11s  -  2 7 mph 1017.1mb 58f 56f
11:50am 4.5ft 12s  -  7 9 mph 1017.5mb 58f 56f
10:50am 4.5ft 11s  -  7 9 mph 1017.5mb 58f 56f
9:50am 4.5ft 15s  -  4 7 mph 1017.1mb 58f 55f
8:50am 4.5ft 11s  -  7 11 mph 1016.9mb 58f 55f
7:50am 4.5ft 13s  -  7 11 mph 1016.9mb 58f 55f
6:50am 4.5ft 12s  -  4 9 mph 1016.6mb 58f 56f
5:50am 4.5ft 12s  -  9 11 mph 1016.1mb 58f 56f
4:50am 4.5ft 12s  -  9 11 mph 1016mb 58f 56f
3:50am 4.5ft 12s  -  9 13 mph 1016mb 58f 56f
2:50am 5ft 12s  -  13 16 mph 1015.9mb 58f 56f
1:50am 5ft 15s  -  13 18 mph 1016mb 58f 56f
12:50am 4.5ft 12s  -  13 18 mph 1016.3mb 58f 56f
Sat 08/16 11:50pm 4.5ft 14s  -  13 16 mph 1016.5mb 58f 57f
10:50pm 4.5ft 15s  -  13 16 mph 1016.6mb 58f 55f
9:50pm 4.5ft 12s  -  13 16 mph 1016.8mb 58f 56f
8:50pm 4.5ft 14s  -  11 16 mph 1016.5mb 59f 56f
7:50pm 4.5ft 13s  -  11 13 mph 1016.3mb 59f 56f
6:50pm 3.5ft 12s  -  9 13 mph 1016.2mb 59f 57f